createdAt,value
2019-02-06T00:01:13.490Z,25.00
2019-02-06T00:03:43.781Z,25.73
2019-02-06T00:06:14.126Z,25.23
2019-02-06T00:08:44.439Z,26.57
2019-02-06T00:11:15.062Z,25.97
2019-02-06T00:13:45.382Z,26.80
2019-02-06T00:16:15.765Z,29.80
2019-02-06T00:18:46.146Z,28.47
2019-02-06T00:21:16.475Z,30.23
2019-02-06T00:23:47.769Z,27.27
2019-02-06T00:26:18.301Z,27.40
2019-02-06T00:28:48.607Z,27.10
2019-02-06T00:31:18.966Z,30.27
2019-02-06T00:33:49.288Z,31.30
2019-02-06T00:36:19.633Z,31.13
2019-02-06T00:38:50.081Z,28.23
2019-02-06T00:41:20.420Z,27.87
2019-02-06T00:43:50.725Z,27.67
2019-02-06T00:46:24.045Z,28.13
2019-02-06T00:48:54.625Z,31.03
2019-02-06T00:51:24.967Z,33.73
2019-02-06T00:53:55.297Z,33.20
2019-02-06T00:56:25.669Z,31.80
2019-02-06T00:58:55.992Z,35.37
2019-02-06T01:01:26.326Z,30.80
2019-02-06T01:03:57.236Z,30.43
2019-02-06T01:06:27.957Z,29.80
2019-02-06T01:08:58.291Z,32.00
2019-02-06T01:11:28.917Z,31.40
2019-02-06T01:13:59.237Z,36.17
2019-02-06T01:16:29.684Z,37.93
2019-02-06T01:18:59.922Z,30.93
2019-02-06T01:21:30.262Z,30.90
2019-02-06T01:24:00.622Z,30.87
2019-02-06T01:26:31.262Z,29.57
2019-02-06T01:29:01.580Z,32.00
2019-02-06T01:31:33.665Z,30.10
2019-02-06T01:34:04.038Z,30.97
2019-02-06T01:36:34.380Z,30.77
2019-02-06T01:39:09.032Z,30.20
2019-02-06T01:41:39.417Z,30.93
2019-02-06T01:44:09.729Z,29.53
2019-02-06T01:46:40.167Z,31.37
2019-02-06T01:49:10.801Z,31.83
2019-02-06T01:51:41.157Z,30.80
2019-02-06T01:54:11.477Z,31.47
2019-02-06T01:56:41.877Z,31.83
2019-02-06T01:59:12.276Z,31.03
2019-02-06T02:01:42.780Z,31.47
2019-02-06T02:04:13.596Z,30.20
2019-02-06T02:06:44.026Z,29.82
2019-02-06T02:09:19.545Z,28.73
2019-02-06T02:11:50.607Z,30.13
2019-02-06T02:14:20.982Z,33.27
2019-02-06T02:16:51.657Z,32.77
2019-02-06T02:19:22.026Z,35.73
2019-02-06T02:21:52.627Z,36.40
2019-02-06T02:24:23.395Z,36.10
2019-02-06T02:26:53.890Z,36.43
2019-02-06T02:29:24.560Z,32.87
2019-02-06T02:31:55.750Z,34.13
2019-02-06T02:34:26.097Z,37.47
2019-02-06T02:36:56.483Z,46.58
2019-02-06T02:39:26.947Z,45.33
2019-02-06T02:41:57.361Z,41.10
2019-02-06T02:44:27.779Z,34.43
2019-02-06T02:46:58.143Z,33.87
2019-02-06T02:49:28.506Z,34.40
2019-02-06T02:51:58.908Z,30.40
2019-02-06T02:54:29.320Z,29.40
2019-02-06T02:57:00.217Z,26.27
2019-02-06T02:59:30.819Z,24.23
2019-02-06T03:02:09.546Z,24.63
2019-02-06T03:05:05.116Z,23.07
2019-02-06T03:07:35.454Z,20.53
2019-02-06T03:10:06.905Z,20.03
2019-02-06T03:12:37.302Z,19.37
2019-02-06T03:15:08.625Z,20.03
2019-02-06T03:17:39.644Z,21.17
2019-02-06T03:20:11.233Z,19.33
2019-02-06T03:22:41.540Z,21.33
2019-02-06T03:25:11.891Z,20.27
2019-02-06T03:27:42.203Z,20.07
2019-02-06T03:30:14.605Z,20.60
2019-02-06T03:32:44.917Z,20.07
2019-02-06T03:35:15.350Z,20.27
2019-02-06T03:37:45.708Z,20.47
2019-02-06T03:40:16.481Z,22.13
2019-02-06T03:42:46.790Z,21.50
2019-02-06T03:45:17.522Z,20.90
2019-02-06T03:47:47.917Z,23.17
2019-02-06T03:50:18.632Z,21.37
2019-02-06T03:52:48.942Z,21.17
2019-02-06T03:55:19.278Z,23.50
2019-02-06T03:57:49.586Z,23.47
2019-02-06T04:00:20.322Z,24.53
2019-02-06T04:02:50.640Z,25.93
2019-02-06T04:05:20.981Z,24.50
2019-02-06T04:07:51.303Z,26.07
2019-02-06T04:10:21.753Z,24.13
2019-02-06T04:12:52.078Z,26.03
2019-02-06T04:15:22.429Z,25.83
2019-02-06T04:17:55.497Z,26.30
2019-02-06T04:20:25.829Z,25.23
2019-02-06T04:22:56.239Z,25.63
2019-02-06T04:25:26.572Z,23.43
2019-02-06T04:27:57.200Z,25.60
2019-02-06T04:30:27.627Z,24.17
2019-02-06T04:32:57.937Z,23.40
2019-02-06T04:35:30.071Z,24.13
2019-02-06T04:38:00.437Z,26.30
2019-02-06T04:40:31.112Z,24.90
2019-02-06T04:43:01.485Z,24.30
2019-02-06T04:45:31.825Z,24.13
2019-02-06T04:48:02.122Z,25.07
2019-02-06T04:50:32.461Z,23.00
2019-02-06T04:53:02.792Z,24.53
2019-02-06T04:55:33.421Z,27.80
2019-02-06T04:58:03.728Z,28.23
2019-02-06T05:00:34.093Z,27.70
2019-02-06T05:03:04.395Z,25.62
2019-02-06T05:05:35.793Z,24.07
2019-02-06T05:08:06.113Z,23.17
2019-02-06T05:10:36.487Z,22.22
2019-02-06T05:13:06.855Z,21.97
2019-02-06T05:15:37.432Z,22.70
2019-02-06T05:18:07.803Z,24.33
2019-02-06T05:20:39.785Z,23.77
2019-02-06T05:23:11.094Z,23.13
2019-02-06T05:25:45.458Z,23.02
2019-02-06T05:28:18.215Z,22.77
2019-02-06T05:30:48.697Z,22.97
2019-02-06T05:33:19.231Z,31.27
2019-02-06T05:35:50.306Z,35.70
2019-02-06T05:38:20.716Z,39.55
2019-02-06T05:40:51.533Z,33.30
2019-02-06T05:43:22.041Z,31.50
2019-02-06T05:45:52.583Z,40.33
2019-02-06T05:48:23.459Z,35.13
2019-02-06T05:50:54.539Z,31.10
2019-02-06T05:53:24.979Z,32.13
2019-02-06T05:55:55.634Z,30.17
2019-02-06T05:58:26.053Z,28.03
2019-02-06T06:00:56.454Z,27.97
2019-02-06T06:03:26.830Z,26.23
2019-02-06T06:05:57.212Z,27.70
2019-02-06T06:08:27.621Z,27.17
2019-02-06T06:10:58.001Z,28.50
2019-02-06T06:13:28.327Z,29.70
2019-02-06T06:15:58.623Z,40.07
2019-02-06T06:18:29.041Z,35.87
2019-02-06T06:20:59.387Z,37.57
2019-02-06T06:23:31.213Z,37.80
2019-02-06T06:26:01.539Z,38.07
2019-02-06T06:28:31.894Z,37.30
2019-02-06T06:31:02.305Z,38.60
2019-02-06T06:33:33.144Z,41.63
2019-02-06T06:36:03.467Z,38.97
2019-02-06T06:38:33.825Z,41.17
2019-02-06T06:41:04.159Z,40.57
2019-02-06T06:43:34.516Z,39.43
2019-02-06T06:46:04.985Z,42.33
2019-02-06T06:48:35.554Z,49.50
2019-02-06T06:51:05.881Z,42.60
2019-02-06T06:53:37.400Z,41.50
2019-02-06T06:56:07.724Z,41.73
2019-02-06T06:58:38.045Z,40.60
2019-02-06T07:01:10.857Z,40.47
2019-02-06T07:03:40.393Z,40.50
2019-02-06T07:06:10.701Z,41.47
2019-02-06T07:08:41.136Z,39.97
2019-02-06T07:11:11.441Z,38.87
2019-02-06T07:13:41.791Z,38.50
2019-02-06T07:16:12.105Z,38.00
2019-02-06T07:18:42.458Z,37.10
2019-02-06T07:21:12.786Z,37.00
2019-02-06T07:23:43.161Z,34.77
2019-02-06T07:26:13.505Z,31.77
2019-02-06T07:28:43.878Z,35.23
2019-02-06T07:31:14.208Z,36.40
2019-02-06T07:33:44.851Z,37.57
2019-02-06T07:36:15.162Z,37.17
2019-02-06T07:38:45.686Z,33.67
2019-02-06T07:41:16.016Z,33.80
2019-02-06T07:43:46.678Z,35.37
2019-02-06T07:46:17.027Z,35.50
2019-02-06T07:48:47.373Z,35.13
2019-02-06T07:51:17.737Z,34.33
2019-02-06T07:53:48.043Z,34.17
2019-02-06T07:56:18.410Z,34.67
2019-02-06T07:58:50.757Z,32.17
2019-02-06T08:01:20.691Z,32.23
2019-02-06T08:03:51.382Z,31.40
2019-02-06T08:06:21.816Z,30.90
2019-02-06T08:08:52.767Z,29.03
2019-02-06T08:11:24.179Z,31.30
2019-02-06T08:13:54.854Z,30.10
2019-02-06T08:16:25.114Z,30.97
2019-02-06T08:18:55.682Z,29.70
2019-02-06T08:21:26.033Z,31.17
2019-02-06T08:23:56.541Z,30.53
2019-02-06T08:26:26.910Z,36.53
2019-02-06T08:28:57.291Z,30.92
2019-02-06T08:31:27.688Z,28.23
2019-02-06T08:33:58.012Z,27.63
2019-02-06T08:36:28.417Z,30.03
2019-02-06T08:38:59.053Z,29.13
2019-02-06T08:41:29.503Z,27.67
2019-02-06T08:44:01.887Z,25.63
2019-02-06T08:46:31.823Z,29.53
2019-02-06T08:49:02.543Z,29.80
2019-02-06T08:51:32.965Z,28.50
2019-02-06T08:54:03.329Z,27.17
2019-02-06T08:56:33.643Z,27.03
2019-02-06T08:59:04.585Z,27.90
2019-02-06T09:01:34.983Z,34.37
2019-02-06T09:04:05.413Z,30.03
2019-02-06T09:06:36.014Z,29.47
2019-02-06T09:09:10.580Z,30.83
2019-02-06T09:11:40.890Z,24.40
2019-02-06T09:14:11.329Z,31.10
2019-02-06T09:16:41.645Z,31.73
2019-02-06T09:19:12.015Z,32.27
2019-02-06T09:21:42.332Z,32.97
2019-02-06T09:24:12.650Z,30.70
2019-02-06T09:26:43.024Z,34.87
2019-02-06T09:29:13.343Z,33.13
2019-02-06T09:31:43.644Z,33.60
2019-02-06T09:34:14.385Z,31.53
2019-02-06T09:36:44.695Z,28.70
2019-02-06T09:39:15.109Z,33.00
2019-02-06T09:41:45.451Z,33.67
2019-02-06T09:44:15.891Z,31.53
2019-02-06T09:46:46.216Z,32.50
2019-02-06T09:49:16.862Z,32.07
2019-02-06T09:51:47.214Z,30.17
2019-02-06T09:54:17.547Z,30.43
2019-02-06T09:56:50.595Z,30.23
2019-02-06T09:59:19.829Z,29.00
2019-02-06T10:01:50.154Z,26.47
2019-02-06T10:04:20.486Z,28.37
2019-02-06T10:06:50.785Z,29.30
2019-02-06T10:09:23.099Z,28.67
2019-02-06T10:11:53.064Z,25.63
2019-02-06T10:14:23.437Z,25.03
2019-02-06T10:16:53.866Z,25.67
2019-02-06T10:19:24.170Z,26.27
2019-02-06T10:21:54.578Z,27.37
2019-02-06T10:24:24.862Z,25.33
2019-02-06T10:26:57.358Z,25.10
2019-02-06T10:29:27.663Z,26.70
2019-02-06T10:31:57.952Z,27.57
2019-02-06T10:34:28.284Z,26.90
2019-02-06T10:36:58.569Z,29.00
2019-02-06T10:39:34.540Z,27.07
2019-02-06T10:42:00.815Z,28.27
2019-02-06T10:44:31.564Z,61.57
2019-02-06T10:47:03.006Z,30.33
2019-02-06T10:49:33.341Z,35.27
2019-02-06T10:52:03.641Z,27.63
2019-02-06T10:54:34.013Z,28.73
2019-02-06T10:57:04.530Z,28.97
2019-02-06T10:59:34.873Z,28.83
2019-02-06T11:02:05.289Z,29.00
2019-02-06T11:04:35.739Z,27.80
2019-02-06T11:07:08.261Z,31.30
2019-02-06T11:09:45.870Z,27.02
2019-02-06T11:12:09.999Z,29.10
2019-02-06T11:14:40.347Z,27.73
2019-02-06T11:17:10.794Z,29.03
2019-02-06T11:19:43.136Z,28.07
2019-02-06T11:22:13.110Z,28.27
2019-02-06T11:24:43.483Z,27.90
2019-02-06T11:27:13.943Z,27.07
2019-02-06T11:29:44.500Z,25.03
2019-02-06T11:32:14.852Z,26.77
2019-02-06T11:34:45.216Z,26.87
2019-02-06T11:37:15.543Z,26.13
2019-02-06T11:39:57.330Z,25.27
2019-02-06T11:42:18.232Z,25.17
2019-02-06T11:44:48.848Z,25.87
2019-02-06T11:47:19.104Z,25.83
2019-02-06T11:49:51.857Z,28.30
2019-02-06T11:52:22.466Z,27.27
2019-02-06T11:54:52.956Z,27.03
2019-02-06T11:57:24.233Z,26.07
2019-02-06T11:59:54.838Z,27.13
2019-02-06T12:02:36.757Z,26.53
2019-02-06T12:04:57.869Z,26.97
2019-02-06T12:07:28.196Z,26.93
2019-02-06T12:10:09.013Z,27.67
2019-02-06T12:12:30.548Z,27.33
2019-02-06T12:15:00.914Z,27.73
2019-02-06T12:17:31.415Z,26.77
2019-02-06T12:20:02.191Z,28.50
2019-02-06T12:22:32.554Z,26.70
2019-02-06T12:25:02.921Z,27.67
2019-02-06T12:27:33.238Z,26.57
2019-02-06T12:30:05.143Z,27.33
2019-02-06T12:32:35.638Z,27.83
2019-02-06T12:35:07.150Z,28.10
2019-02-06T12:37:37.466Z,27.07
2019-02-06T12:40:08.010Z,26.87
2019-02-06T12:42:38.317Z,26.90
2019-02-06T12:45:10.483Z,27.17
2019-02-06T12:47:40.821Z,27.47
2019-02-06T12:50:11.931Z,27.30
2019-02-06T12:52:42.262Z,27.77
2019-02-06T12:55:19.537Z,27.20
2019-02-06T12:57:48.599Z,26.93
2019-02-06T13:00:22.427Z,27.47
2019-02-06T13:02:56.358Z,26.97
2019-02-06T13:05:25.053Z,26.47
2019-02-06T13:07:55.697Z,28.83
2019-02-06T13:10:33.461Z,26.40
2019-02-06T13:12:58.006Z,26.87
2019-02-06T13:15:28.398Z,25.70
2019-02-06T13:17:58.711Z,26.13
2019-02-06T13:20:30.045Z,25.67
2019-02-06T13:23:00.360Z,24.60
2019-02-06T13:25:30.775Z,25.10
2019-02-06T13:28:01.214Z,25.00
2019-02-06T13:30:34.187Z,25.03
2019-02-06T13:33:06.500Z,24.33
2019-02-06T13:35:38.012Z,25.00
2019-02-06T13:38:08.609Z,23.87
2019-02-06T13:40:45.561Z,23.80
2019-02-06T13:43:10.994Z,24.20
2019-02-06T13:45:43.846Z,23.83
2019-02-06T13:48:14.309Z,24.00
2019-02-06T13:50:44.965Z,23.93
2019-02-06T13:53:15.315Z,24.27
2019-02-06T13:55:45.778Z,23.77
2019-02-06T13:58:20.126Z,22.57
2019-02-06T14:00:48.298Z,23.50
2019-02-06T14:03:18.720Z,25.23
2019-02-06T14:05:49.269Z,24.93
2019-02-06T14:08:19.720Z,24.97
2019-02-06T14:11:00.296Z,25.77
2019-02-06T14:13:22.968Z,25.70
2019-02-06T14:15:53.639Z,25.20
2019-02-06T14:18:24.167Z,24.43
2019-02-06T14:20:55.112Z,24.03
2019-02-06T14:23:32.545Z,23.27
2019-02-06T14:26:33.149Z,23.97
2019-02-06T14:29:32.693Z,25.37
2019-02-06T14:32:31.882Z,24.17
2019-02-06T14:35:33.932Z,25.37
2019-02-06T14:38:40.638Z,24.40
2019-02-06T14:41:36.022Z,24.57
2019-02-06T14:44:26.167Z,23.43
2019-02-06T14:47:27.862Z,22.50
2019-02-06T14:50:17.752Z,23.83
2019-02-06T14:53:07.680Z,23.25
2019-02-06T14:56:10.092Z,23.57
2019-02-06T14:59:23.656Z,24.40
2019-02-06T15:02:38.114Z,26.17
2019-02-06T15:05:33.862Z,24.17
2019-02-06T15:08:45.645Z,25.30
2019-02-06T15:11:40.790Z,24.00
2019-02-06T15:14:33.258Z,24.23
2019-02-06T15:18:02.930Z,23.37
2019-02-06T15:21:14.185Z,24.17
2019-02-06T15:24:16.290Z,24.47
2019-02-06T15:27:15.929Z,23.87
2019-02-06T15:30:15.765Z,24.80
2019-02-06T15:33:13.281Z,24.47
2019-02-06T15:36:03.820Z,24.30
2019-02-06T15:39:18.339Z,24.67
2019-02-06T15:42:20.014Z,24.90
2019-02-06T15:45:10.866Z,25.90
2019-02-06T15:48:06.882Z,25.40
2019-02-06T15:51:09.582Z,25.50
2019-02-06T15:53:51.311Z,25.63
2019-02-06T15:57:13.547Z,25.87
2019-02-06T16:00:19.881Z,26.20
2019-02-06T16:03:18.138Z,24.87
2019-02-06T16:06:36.393Z,27.67
2019-02-06T16:09:51.022Z,26.17
2019-02-06T16:13:14.265Z,26.77
2019-02-06T16:16:31.907Z,26.33
2019-02-06T16:19:45.270Z,26.10
2019-02-06T16:22:57.018Z,26.07
2019-02-06T16:25:53.291Z,27.93
2019-02-06T16:28:43.752Z,27.63
2019-02-06T16:31:57.473Z,29.30
2019-02-06T16:35:01.679Z,27.00
2019-02-06T16:37:54.024Z,26.87
2019-02-06T16:40:50.037Z,28.20
2019-02-06T16:44:10.897Z,29.80
2019-02-06T16:46:55.592Z,28.90
2019-02-06T16:49:49.177Z,29.77
2019-02-06T16:52:46.754Z,31.50
2019-02-06T16:55:41.498Z,31.40
2019-02-06T16:58:38.318Z,34.33
2019-02-06T17:01:43.225Z,30.53
2019-02-06T17:05:00.426Z,32.93
2019-02-06T17:08:00.877Z,31.90
2019-02-06T17:11:05.622Z,31.97
2019-02-06T17:14:12.921Z,33.25
2019-02-06T17:17:35.942Z,33.67
2019-02-06T17:21:05.699Z,34.97
2019-02-06T17:24:16.164Z,32.07
2019-02-06T17:27:01.367Z,35.33
2019-02-06T17:30:16.156Z,35.40
2019-02-06T17:33:27.481Z,35.08
2019-02-06T17:36:28.784Z,39.73
2019-02-06T17:39:46.787Z,34.23
2019-02-06T17:42:47.006Z,29.90
2019-02-06T17:45:47.766Z,28.57
2019-02-06T17:48:40.122Z,32.97
2019-02-06T17:51:40.754Z,53.37
2019-02-06T17:54:18.404Z,44.17
2019-02-06T17:56:50.030Z,40.07
2019-02-06T17:59:20.642Z,37.17
2019-02-06T18:01:55.796Z,43.57
2019-02-06T18:04:35.692Z,33.13
2019-02-06T18:07:06.731Z,39.77
2019-02-06T18:09:37.435Z,32.23
2019-02-06T18:12:08.362Z,36.10
2019-02-06T18:14:39.006Z,47.03
2019-02-06T18:17:09.348Z,67.00
2019-02-06T18:19:40.886Z,43.33
2019-02-06T18:22:11.371Z,28.63
2019-02-06T18:24:41.714Z,29.93
2019-02-06T18:27:12.764Z,31.17
2019-02-06T18:29:43.166Z,33.80
2019-02-06T18:32:15.118Z,29.93
2019-02-06T18:34:45.667Z,30.37
2019-02-06T18:37:16.263Z,36.20
2019-02-06T18:39:46.737Z,34.17
2019-02-06T18:42:17.296Z,33.93
2019-02-06T18:44:49.791Z,35.10
2019-02-06T18:47:23.530Z,34.77
2019-02-06T18:49:54.084Z,34.87
2019-02-06T18:52:24.573Z,35.67
2019-02-06T18:54:57.373Z,40.47
2019-02-06T18:57:27.758Z,41.17
2019-02-06T18:59:58.785Z,37.17
2019-02-06T19:02:29.320Z,41.67
2019-02-06T19:05:00.103Z,45.90
2019-02-06T19:07:30.505Z,37.90
2019-02-06T19:10:00.896Z,36.70
2019-02-06T19:12:32.320Z,36.43
2019-02-06T19:15:03.119Z,38.53
2019-02-06T19:17:33.570Z,36.67
2019-02-06T19:20:04.587Z,29.80
2019-02-06T19:22:34.994Z,31.03
2019-02-06T19:25:06.472Z,31.50
2019-02-06T19:27:36.851Z,32.83
2019-02-06T19:30:20.000Z,32.03
2019-02-06T19:32:52.397Z,34.27
2019-02-06T19:35:22.784Z,34.73
2019-02-06T19:37:54.175Z,32.83
2019-02-06T19:40:24.576Z,35.50
2019-02-06T19:43:00.491Z,36.97
2019-02-06T19:45:27.670Z,34.23
2019-02-06T19:47:58.406Z,36.27
2019-02-06T19:50:33.976Z,38.30
2019-02-06T19:53:04.597Z,41.80
2019-02-06T19:55:34.999Z,43.80
2019-02-06T19:58:05.943Z,48.20
2019-02-06T20:00:36.334Z,44.77
2019-02-06T20:03:08.171Z,45.63
2019-02-06T20:05:38.773Z,47.15
2019-02-06T20:08:09.285Z,45.10
2019-02-06T20:10:42.040Z,43.37
2019-02-06T20:13:14.489Z,44.77
2019-02-06T20:15:44.801Z,50.63
2019-02-06T20:18:16.589Z,44.40
2019-02-06T20:20:47.158Z,47.60
2019-02-06T20:23:17.914Z,43.83
2019-02-06T20:25:48.348Z,44.03
2019-02-06T20:28:18.907Z,43.67
2019-02-06T20:30:49.530Z,41.13
2019-02-06T20:33:20.437Z,42.48
2019-02-06T20:35:50.790Z,39.63
2019-02-06T20:38:21.189Z,40.23
2019-02-06T20:40:51.524Z,39.85
2019-02-06T20:43:23.180Z,39.27
2019-02-06T20:45:54.375Z,40.37
2019-02-06T20:48:25.480Z,41.00
2019-02-06T20:50:57.659Z,42.27
2019-02-06T20:53:29.851Z,44.43
2019-02-06T20:56:00.334Z,44.43
2019-02-06T20:58:31.676Z,48.57
2019-02-06T21:01:02.362Z,49.83
2019-02-06T21:03:32.717Z,45.67
2019-02-06T21:06:03.430Z,41.77
2019-02-06T21:08:34.255Z,37.27
2019-02-06T21:11:04.766Z,38.20
2019-02-06T21:13:35.281Z,36.13
2019-02-06T21:16:06.154Z,37.37
2019-02-06T21:18:36.548Z,39.70
2019-02-06T21:21:06.885Z,39.80
2019-02-06T21:23:37.306Z,38.63
2019-02-06T21:26:07.681Z,38.47
2019-02-06T21:28:39.577Z,39.43
2019-02-06T21:31:09.913Z,39.20
2019-02-06T21:33:40.329Z,40.80
2019-02-06T21:36:10.662Z,41.03
2019-02-06T21:38:41.094Z,39.93
2019-02-06T21:41:11.419Z,41.00
2019-02-06T21:43:44.112Z,41.40
2019-02-06T21:46:13.790Z,41.57
2019-02-06T21:48:44.309Z,42.33
2019-02-06T21:51:14.780Z,43.60
2019-02-06T21:53:49.185Z,45.33
2019-02-06T21:56:19.637Z,45.73
2019-02-06T21:58:50.056Z,48.83
2019-02-06T22:01:20.501Z,54.13
2019-02-06T22:03:50.923Z,53.97
2019-02-06T22:06:21.264Z,52.60
2019-02-06T22:08:51.702Z,58.90
2019-02-06T22:11:22.107Z,48.47
2019-02-06T22:13:55.100Z,55.43
2019-02-06T22:16:24.530Z,44.57
2019-02-06T22:18:54.957Z,42.90
2019-02-06T22:21:25.349Z,42.67
2019-02-06T22:23:56.160Z,39.87
2019-02-06T22:26:26.483Z,39.17
2019-02-06T22:28:56.820Z,39.10
2019-02-06T22:31:27.203Z,37.47
2019-02-06T22:33:57.516Z,36.87
2019-02-06T22:36:27.939Z,37.13
2019-02-06T22:38:58.350Z,35.70
2019-02-06T22:41:28.729Z,36.23
2019-02-06T22:44:06.270Z,35.47
2019-02-06T22:46:31.069Z,34.93
2019-02-06T22:49:01.417Z,35.57
2019-02-06T22:51:32.211Z,34.43
2019-02-06T22:54:02.563Z,34.93
2019-02-06T22:56:33.073Z,32.93
2019-02-06T22:59:03.495Z,33.77
2019-02-06T23:01:39.078Z,33.67
2019-02-06T23:04:10.256Z,33.30
2019-02-06T23:06:40.561Z,34.43
2019-02-06T23:09:11.081Z,34.23
2019-02-06T23:11:41.689Z,34.10
2019-02-06T23:14:17.756Z,35.17
2019-02-06T23:16:44.611Z,35.37
2019-02-06T23:19:15.155Z,34.13
2019-02-06T23:21:45.643Z,34.27
2019-02-06T23:24:15.973Z,35.58
2019-02-06T23:26:46.423Z,35.63
2019-02-06T23:29:17.203Z,35.98
2019-02-06T23:31:49.902Z,34.60
2019-02-06T23:34:22.808Z,36.40
2019-02-06T23:36:53.582Z,34.73
2019-02-06T23:39:23.949Z,32.97
2019-02-06T23:41:54.416Z,32.07
2019-02-06T23:44:36.164Z,31.07
2019-02-06T23:47:06.557Z,32.20
2019-02-06T23:49:36.894Z,33.00
2019-02-06T23:52:07.724Z,32.33
2019-02-06T23:54:38.508Z,31.60
2019-02-06T23:57:08.812Z,33.60
2019-02-06T23:59:39.330Z,34.80
